HZL02 YSSY-YLMQ
Flight info
| Callsign | HZL02 |
|---|---|
| Flight time | 0h 29m |
| Altitude | 5000 |
| Route | SY3/25 KAMBA |
| Aircraft | BE58/L-SDFGRY/C |
Departure
| Time | 2026-05-08 04:12 |
|---|---|
| Airport | Sydney Kingsford Smith International Airport (YSSY) |
Arrival
| Time | 2026-05-08 04:41 |
|---|---|
| Airport | Lake Macquarie Airport (YLMQ) |
| Time | Latitude | Longitude | Altitude | Speed | Heading |
|---|---|---|---|---|---|
| 2026-05-08 04:11 | -33.94151 | 151.17491 | 425 ft | 120 kts | 252° |
| 2026-05-08 04:12 | -33.94274 | 151.17041 | 687 ft | 122 kts | 256° |
| 2026-05-08 04:12 | -33.94108 | 151.16036 | 1457 ft | 140 kts | 301° |
| 2026-05-08 04:12 | -33.93420 | 151.15099 | 1975 ft | 156 kts | 307° |
| 2026-05-08 04:13 | -33.92579 | 151.14225 | 2494 ft | 164 kts | 310° |
| 2026-05-08 04:13 | -33.91699 | 151.13302 | 2819 ft | 175 kts | 310° |
| 2026-05-08 04:13 | -33.90776 | 151.12376 | 2974 ft | 171 kts | 312° |
| 2026-05-08 04:13 | -33.89823 | 151.11553 | 3166 ft | 168 kts | 319° |
| 2026-05-08 04:14 | -33.88786 | 151.10868 | 3241 ft | 177 kts | 326° |
| 2026-05-08 04:14 | -33.87606 | 151.10393 | 3316 ft | 185 kts | 347° |
| 2026-05-08 04:14 | -33.86295 | 151.10630 | 3324 ft | 199 kts | 15° |
| 2026-05-08 04:14 | -33.85070 | 151.11448 | 3332 ft | 204 kts | 33° |
| 2026-05-08 04:15 | -33.84049 | 151.12617 | 3410 ft | 201 kts | 53° |
| 2026-05-08 04:15 | -33.83244 | 151.13990 | 3556 ft | 199 kts | 55° |
| 2026-05-08 04:15 | -33.82317 | 151.15189 | 3758 ft | 193 kts | 37° |
| 2026-05-08 04:15 | -33.81291 | 151.16249 | 3840 ft | 198 kts | 46° |
| 2026-05-08 04:16 | -33.80344 | 151.17490 | 3808 ft | 202 kts | 48° |
| 2026-05-08 04:16 | -33.79327 | 151.18677 | 3761 ft | 207 kts | 39° |
| 2026-05-08 04:16 | -33.78188 | 151.19752 | 3648 ft | 210 kts | 36° |
| 2026-05-08 04:16 | -33.77034 | 151.20803 | 3699 ft | 203 kts | 39° |
| 2026-05-08 04:17 | -33.76008 | 151.21955 | 3748 ft | 204 kts | 43° |
| 2026-05-08 04:17 | -33.74936 | 151.23041 | 3905 ft | 197 kts | 36° |
| 2026-05-08 04:17 | -33.73812 | 151.24001 | 3923 ft | 203 kts | 33° |
| 2026-05-08 04:17 | -33.72646 | 151.24985 | 3880 ft | 202 kts | 35° |
| 2026-05-08 04:18 | -33.71538 | 151.26003 | 3967 ft | 198 kts | 36° |
| 2026-05-08 04:18 | -33.70435 | 151.27027 | 3919 ft | 203 kts | 36° |
| 2026-05-08 04:18 | -33.69342 | 151.28048 | 4170 ft | 189 kts | 36° |
| 2026-05-08 04:18 | -33.68359 | 151.29028 | 4481 ft | 184 kts | 43° |
| 2026-05-08 04:19 | -33.67383 | 151.30081 | 4619 ft | 190 kts | 32° |
| 2026-05-08 04:19 | -33.66266 | 151.30960 | 4754 ft | 195 kts | 34° |
| 2026-05-08 04:19 | -33.65133 | 151.31957 | 4655 ft | 207 kts | 35° |
| 2026-05-08 04:19 | -33.63948 | 151.32969 | 4531 ft | 210 kts | 37° |
| 2026-05-08 04:20 | -33.62793 | 151.34038 | 4533 ft | 209 kts | 37° |
| 2026-05-08 04:20 | -33.61727 | 151.35178 | 4617 ft | 203 kts | 49° |
| 2026-05-08 04:20 | -33.60677 | 151.36297 | 4373 ft | 212 kts | 25° |
| 2026-05-08 04:20 | -33.59336 | 151.37087 | 4270 ft | 207 kts | 23° |
| 2026-05-08 04:21 | -33.58076 | 151.37857 | 4331 ft | 203 kts | 24° |
| 2026-05-08 04:21 | -33.56793 | 151.38624 | 4208 ft | 207 kts | 24° |
| 2026-05-08 04:21 | -33.55556 | 151.39444 | 4179 ft | 205 kts | 30° |
| 2026-05-08 04:21 | -33.54323 | 151.40339 | 4093 ft | 207 kts | 32° |
| 2026-05-08 04:22 | -33.53170 | 151.41346 | 4040 ft | 207 kts | 39° |
| 2026-05-08 04:22 | -33.51948 | 151.42291 | 3762 ft | 200 kts | 23° |
| 2026-05-08 04:22 | -33.50720 | 151.42907 | 3452 ft | 187 kts | 17° |
| 2026-05-08 04:22 | -33.49563 | 151.43441 | 3351 ft | 170 kts | 17° |
| 2026-05-08 04:23 | -33.48445 | 151.44008 | 3039 ft | 180 kts | 18° |
| 2026-05-08 04:23 | -33.47341 | 151.44663 | 2849 ft | 174 kts | 23° |
| 2026-05-08 04:23 | -33.46304 | 151.45335 | 2670 ft | 169 kts | 25° |
| 2026-05-08 04:23 | -33.45290 | 151.46026 | 2462 ft | 167 kts | 25° |
| 2026-05-08 04:24 | -33.44255 | 151.46690 | 2306 ft | 163 kts | 24° |
| 2026-05-08 04:24 | -33.43282 | 151.47337 | 2172 ft | 161 kts | 24° |
| 2026-05-08 04:24 | -33.42252 | 151.48041 | 1656 ft | 180 kts | 24° |
| 2026-05-08 04:24 | -33.41217 | 151.48717 | 1602 ft | 161 kts | 24° |
| 2026-05-08 04:25 | -33.40217 | 151.49413 | 1236 ft | 173 kts | 27° |
| 2026-05-08 04:25 | -33.39193 | 151.50015 | 1265 ft | 156 kts | 16° |
| 2026-05-08 04:25 | -33.38207 | 151.50452 | 1302 ft | 150 kts | 13° |
| 2026-05-08 04:25 | -33.37213 | 151.50863 | 1374 ft | 154 kts | 20° |
| 2026-05-08 04:26 | -33.36289 | 151.51385 | 1604 ft | 142 kts | 18° |
| 2026-05-08 04:26 | -33.35336 | 151.51778 | 1629 ft | 152 kts | 10° |
| 2026-05-08 04:26 | -33.34312 | 151.52138 | 1719 ft | 153 kts | 15° |
| 2026-05-08 04:26 | -33.33342 | 151.52646 | 1890 ft | 151 kts | 25° |
| 2026-05-08 04:27 | -33.32414 | 151.53297 | 2229 ft | 156 kts | 28° |
| 2026-05-08 04:27 | -33.31486 | 151.53992 | 2354 ft | 156 kts | 23° |
| 2026-05-08 04:27 | -33.30489 | 151.54561 | 2448 ft | 162 kts | 18° |
| 2026-05-08 04:27 | -33.29367 | 151.55105 | 2916 ft | 180 kts | 16° |
| 2026-05-08 04:28 | -33.28177 | 151.55681 | 3413 ft | 180 kts | 18° |
| 2026-05-08 04:28 | -33.27007 | 151.56175 | 3980 ft | 188 kts | 17° |
| 2026-05-08 04:28 | -33.25750 | 151.56776 | 4073 ft | 196 kts | 18° |
| 2026-05-08 04:28 | -33.24483 | 151.57394 | 3902 ft | 197 kts | 21° |
| 2026-05-08 04:29 | -33.23210 | 151.58056 | 3699 ft | 196 kts | 19° |
| 2026-05-08 04:29 | -33.21980 | 151.58733 | 3666 ft | 195 kts | 24° |
| 2026-05-08 04:29 | -33.20762 | 151.59453 | 3700 ft | 196 kts | 23° |
| 2026-05-08 04:29 | -33.19561 | 151.60141 | 3639 ft | 195 kts | 19° |
| 2026-05-08 04:30 | -33.18302 | 151.60723 | 3649 ft | 193 kts | 18° |
| 2026-05-08 04:30 | -33.17067 | 151.61272 | 3781 ft | 187 kts | 15° |
| 2026-05-08 04:30 | -33.15857 | 151.61745 | 3941 ft | 183 kts | 12° |
| 2026-05-08 04:30 | -33.14625 | 151.62222 | 3931 ft | 188 kts | 15° |
| 2026-05-08 04:31 | -33.13408 | 151.62837 | 3837 ft | 187 kts | 20° |
| 2026-05-08 04:31 | -33.12276 | 151.63430 | 3212 ft | 179 kts | 16° |
| 2026-05-08 04:31 | -33.11134 | 151.63988 | 2390 ft | 178 kts | 22° |
| 2026-05-08 04:31 | -33.10132 | 151.64883 | 1758 ft | 179 kts | 40° |
| 2026-05-08 04:32 | -33.09319 | 151.65969 | 1254 ft | 173 kts | 52° |
| 2026-05-08 04:32 | -33.08652 | 151.67101 | 911 ft | 156 kts | 53° |
| 2026-05-08 04:32 | -33.07967 | 151.68044 | 532 ft | 151 kts | 35° |
| 2026-05-08 04:32 | -33.07148 | 151.68305 | 487 ft | 98 kts | 317° |
| 2026-05-08 04:33 | -33.06795 | 151.67705 | 486 ft | 91 kts | 303° |
| 2026-05-08 04:33 | -33.06663 | 151.66996 | 391 ft | 93 kts | 280° |
| 2026-05-08 04:33 | -33.06493 | 151.66255 | 311 ft | 90 kts | 272° |
| 2026-05-08 04:33 | -33.06494 | 151.65514 | 130 ft | 88 kts | 261° |
| 2026-05-08 04:34 | -33.06566 | 151.64866 | 19 ft | 72 kts | 254° |
| 2026-05-08 04:34 | -33.06619 | 151.64318 | 91 ft | 66 kts | 253° |
| 2026-05-08 04:34 | -33.06924 | 151.63884 | 381 ft | 92 kts | 194° |
| 2026-05-08 04:34 | -33.07672 | 151.64283 | 668 ft | 135 kts | 139° |
| 2026-05-08 04:35 | -33.07980 | 151.65379 | 1204 ft | 150 kts | 94° |
| 2026-05-08 04:35 | -33.07928 | 151.66673 | 1608 ft | 161 kts | 95° |
| 2026-05-08 04:35 | -33.07926 | 151.68043 | 1978 ft | 166 kts | 91° |
| 2026-05-08 04:35 | -33.07806 | 151.69511 | 2084 ft | 180 kts | 86° |
| 2026-05-08 04:36 | -33.07632 | 151.71027 | 2084 ft | 192 kts | 86° |
| 2026-05-08 04:36 | -33.07518 | 151.72645 | 1917 ft | 201 kts | 91° |
| 2026-05-08 04:36 | -33.07476 | 151.74298 | 1959 ft | 198 kts | 88° |
| 2026-05-08 04:36 | -33.07244 | 151.75947 | 1819 ft | 204 kts | 75° |
| 2026-05-08 04:37 | -33.06806 | 151.77407 | 1749 ft | 169 kts | 70° |
| 2026-05-08 04:37 | -33.06432 | 151.78731 | 1180 ft | 173 kts | 68° |
| 2026-05-08 04:37 | -33.05770 | 151.79686 | 1154 ft | 143 kts | 14° |
| 2026-05-08 04:37 | -33.04809 | 151.79992 | 975 ft | 128 kts | 349° |
| 2026-05-08 04:38 | -33.04293 | 151.79534 | 833 ft | 100 kts | 255° |
| 2026-05-08 04:38 | -33.04626 | 151.78576 | 348 ft | 154 kts | 247° |
| 2026-05-08 04:38 | -33.05008 | 151.77379 | 738 ft | 160 kts | 253° |
| 2026-05-08 04:38 | -33.05130 | 151.76182 | 1370 ft | 125 kts | 270° |
| 2026-05-08 04:39 | -33.05172 | 151.75041 | 1111 ft | 149 kts | 260° |
| 2026-05-08 04:39 | -33.05325 | 151.73812 | 949 ft | 146 kts | 266° |
| 2026-05-08 04:39 | -33.05420 | 151.72633 | 997 ft | 142 kts | 256° |
| 2026-05-08 04:39 | -33.05670 | 151.71464 | 932 ft | 147 kts | 256° |
| 2026-05-08 04:40 | -33.05871 | 151.70242 | 850 ft | 155 kts | 261° |
| 2026-05-08 04:40 | -33.06035 | 151.68963 | 761 ft | 157 kts | 261° |
| 2026-05-08 04:40 | -33.06155 | 151.67837 | 650 ft | 103 kts | 259° |
| 2026-05-08 04:40 | -33.06271 | 151.67108 | 388 ft | 94 kts | 253° |
| 2026-05-08 04:41 | -33.06393 | 151.66185 | 205 ft | 124 kts | 259° |
| 2026-05-08 04:41 | -33.06519 | 151.65219 | 49 ft | 113 kts | 256° |
| 2026-05-08 04:41 | -33.06620 | 151.64435 | 6 ft | 64 kts | 263° |
| 2026-05-08 04:41 | -33.06637 | 151.64241 | 6 ft | 5 kts | 264° |
| 2026-05-08 04:42 | -33.06641 | 151.64205 | 7 ft | 4 kts | 262° |
| 2026-05-08 04:42 | -33.06648 | 151.64183 | 9 ft | 2 kts | 195° |
| 2026-05-08 04:42 | -33.06657 | 151.64187 | 7 ft | 2 kts | 130° |
| 2026-05-08 04:42 | -33.06633 | 151.64265 | 7 ft | 18 kts | 75° |
| 2026-05-08 04:43 | -33.06609 | 151.64498 | 6 ft | 38 kts | 82° |
| 2026-05-08 04:43 | -33.06568 | 151.64856 | 5 ft | 31 kts | 83° |
| 2026-05-08 04:43 | -33.06563 | 151.64901 | 8 ft | 0 kts | 78° |
| 2026-05-08 04:44 | -33.06550 | 151.65036 | 12 ft | 8 kts | 94° |
| 2026-05-08 04:44 | -33.06599 | 151.65052 | 6 ft | 0 kts | 230° |